createdAt,value
2018-07-16T00:00:02.253Z,99.99
2018-07-16T00:01:02.275Z,99.99
2018-07-16T00:02:02.294Z,99.99
2018-07-16T00:03:02.317Z,99.99
2018-07-16T00:04:02.093Z,99.99
2018-07-16T00:05:02.365Z,99.99
2018-07-16T00:06:17.053Z,99.99
2018-07-16T00:07:02.417Z,99.99
2018-07-16T00:08:02.442Z,99.99
2018-07-16T00:09:02.205Z,99.99
2018-07-16T00:10:02.489Z,99.99
2018-07-16T00:11:02.253Z,99.99
2018-07-16T00:12:02.535Z,99.99
2018-07-16T00:13:02.558Z,99.99
2018-07-16T00:15:02.609Z,99.99
2018-07-16T00:16:02.631Z,99.99
2018-07-16T00:17:02.655Z,99.99
2018-07-16T00:18:02.685Z,99.99
2018-07-16T00:19:02.444Z,99.99
2018-07-16T00:20:02.468Z,99.99
2018-07-16T00:21:02.491Z,99.99
2018-07-16T00:22:02.775Z,99.99
2018-07-16T00:23:02.796Z,99.99
2018-07-16T00:24:02.822Z,99.99
2018-07-16T00:25:02.845Z,99.99
2018-07-16T00:26:02.869Z,99.99
2018-07-16T00:27:02.892Z,99.99
2018-07-16T00:28:02.917Z,99.99
2018-07-16T00:30:02.969Z,99.99
2018-07-16T00:32:03.012Z,99.99
2018-07-16T00:33:03.039Z,99.99
2018-07-16T00:34:03.063Z,99.99
2018-07-16T00:35:03.086Z,99.99
2018-07-16T00:36:03.108Z,99.99
2018-07-16T00:37:03.131Z,99.99
2018-07-16T00:38:17.815Z,99.99
2018-07-16T00:39:03.179Z,99.99
2018-07-16T00:40:03.203Z,99.99
2018-07-16T00:41:03.225Z,99.99
2018-07-16T00:42:03.251Z,99.99
2018-07-16T00:43:03.273Z,99.99
2018-07-16T00:44:03.299Z,99.99
2018-07-16T00:45:03.324Z,99.99
2018-07-16T00:48:03.394Z,99.99
2018-07-16T00:49:03.417Z,99.99
2018-07-16T00:50:03.443Z,99.99
2018-07-16T00:51:03.471Z,99.99
2018-07-16T00:52:03.489Z,99.99
2018-07-16T00:53:03.516Z,99.99
2018-07-16T00:54:18.198Z,99.99
2018-07-16T00:55:03.561Z,99.99
2018-07-16T00:56:03.586Z,99.99
2018-07-16T00:57:03.351Z,99.99
2018-07-16T00:58:03.632Z,99.99
2018-07-16T00:59:03.656Z,99.99
2018-07-16T01:00:03.681Z,99.99
2018-07-16T01:01:03.704Z,99.99
2018-07-16T01:02:03.726Z,99.99
2018-07-16T01:04:03.527Z,99.99
2018-07-16T01:05:03.540Z,99.99
2018-07-16T01:06:03.822Z,99.99
2018-07-16T01:07:03.844Z,99.99
2018-07-16T01:08:03.870Z,99.99
2018-07-16T01:09:03.930Z,99.99
2018-07-16T01:10:18.577Z,99.99
2018-07-16T01:11:03.939Z,99.99
2018-07-16T01:12:03.706Z,99.99
2018-07-16T01:13:03.728Z,99.99
2018-07-16T01:14:03.753Z,99.99
2018-07-16T01:15:04.046Z,99.99
2018-07-16T01:16:04.060Z,99.99
2018-07-16T01:17:03.826Z,99.99
2018-07-16T01:18:03.847Z,99.99
2018-07-16T01:19:04.131Z,99.99
2018-07-16T01:20:04.153Z,99.99
2018-07-16T01:21:04.176Z,99.99
2018-07-16T01:22:04.211Z,99.99
2018-07-16T01:23:03.965Z,99.99
2018-07-16T01:24:04.248Z,99.99
2018-07-16T01:25:04.020Z,99.99
2018-07-16T01:26:18.955Z,99.99
2018-07-16T01:27:04.061Z,99.99
2018-07-16T01:28:04.342Z,99.99
2018-07-16T01:29:04.107Z,99.99
2018-07-16T01:30:04.391Z,99.99
2018-07-16T01:31:04.157Z,99.99
2018-07-16T01:32:04.444Z,99.99
2018-07-16T01:33:04.201Z,99.99
2018-07-16T01:34:04.487Z,99.99
2018-07-16T01:35:04.250Z,99.99
2018-07-16T01:36:04.274Z,99.99
2018-07-16T01:37:04.553Z,99.99
2018-07-16T01:38:04.586Z,99.99
2018-07-16T01:39:04.344Z,99.99
2018-07-16T01:40:04.368Z,99.99
2018-07-16T01:41:19.311Z,99.99
2018-07-16T01:42:04.414Z,99.99
2018-07-16T01:43:04.438Z,99.99
2018-07-16T01:44:04.719Z,99.99
2018-07-16T01:45:04.484Z,99.99
2018-07-16T01:46:04.509Z,99.99
2018-07-16T01:47:04.531Z,99.99
2018-07-16T01:48:04.816Z,99.99
2018-07-16T01:49:04.581Z,99.99
2018-07-16T01:50:04.605Z,99.99
2018-07-16T01:51:04.884Z,99.99
2018-07-16T01:52:04.909Z,99.99
2018-07-16T01:53:04.929Z,99.99
2018-07-16T01:54:04.957Z,99.99
2018-07-16T01:55:04.981Z,99.99
2018-07-16T01:56:05.003Z,99.99
2018-07-16T01:57:05.026Z,99.99
2018-07-16T01:58:05.048Z,99.99
2018-07-16T01:59:05.081Z,99.99
2018-07-16T02:00:04.838Z,99.99
2018-07-16T02:01:04.859Z,99.99
2018-07-16T02:02:05.143Z,99.99
2018-07-16T02:03:05.179Z,99.99
2018-07-16T02:04:05.197Z,99.99
2018-07-16T02:05:05.219Z,99.99
2018-07-16T02:07:05.259Z,99.99
2018-07-16T02:08:05.287Z,99.99
2018-07-16T02:09:05.315Z,99.99
2018-07-16T02:10:05.345Z,99.99
2018-07-16T02:11:05.095Z,99.99
2018-07-16T02:12:05.373Z,99.99
2018-07-16T02:13:20.061Z,99.99
2018-07-16T02:14:05.426Z,99.99
2018-07-16T02:15:05.188Z,99.99
2018-07-16T02:16:05.231Z,99.99
2018-07-16T02:17:05.234Z,99.99
2018-07-16T02:18:05.258Z,99.99
2018-07-16T02:19:05.540Z,99.99
2018-07-16T02:20:05.304Z,99.99
2018-07-16T02:21:05.584Z,99.99
2018-07-16T02:22:05.356Z,99.99
2018-07-16T02:23:05.636Z,99.99
2018-07-16T02:24:05.664Z,99.99
2018-07-16T02:25:05.685Z,99.99
2018-07-16T02:26:05.447Z,99.99
2018-07-16T02:27:05.725Z,99.99
2018-07-16T02:28:05.492Z,99.99
2018-07-16T02:29:20.435Z,99.99
2018-07-16T02:30:05.538Z,99.99
2018-07-16T02:31:05.821Z,99.99
2018-07-16T02:32:05.844Z,99.99
2018-07-16T02:33:05.608Z,99.99
2018-07-16T02:34:05.890Z,99.99
2018-07-16T02:35:05.910Z,99.99
2018-07-16T02:36:05.688Z,99.99
2018-07-16T02:37:05.969Z,99.99
2018-07-16T02:38:05.724Z,99.99
2018-07-16T02:39:06.008Z,99.99
2018-07-16T02:40:06.036Z,99.99
2018-07-16T02:41:06.059Z,99.99
2018-07-16T02:42:06.075Z,99.99
2018-07-16T02:43:06.112Z,99.99
2018-07-16T02:44:06.129Z,99.99
2018-07-16T02:45:20.808Z,99.99
2018-07-16T02:46:06.180Z,99.99
2018-07-16T02:47:05.933Z,99.99
2018-07-16T02:48:05.957Z,99.99
2018-07-16T02:49:06.239Z,99.99
2018-07-16T02:50:06.261Z,99.99
2018-07-16T02:51:06.284Z,99.99
2018-07-16T02:52:06.307Z,99.99
2018-07-16T02:53:06.072Z,99.99
2018-07-16T02:54:06.368Z,99.99
2018-07-16T02:55:06.134Z,99.99
2018-07-16T02:56:06.409Z,99.99
2018-07-16T02:57:06.425Z,99.99
2018-07-16T02:58:06.447Z,99.99
2018-07-16T02:59:06.215Z,99.99
2018-07-16T03:00:06.495Z,99.99
2018-07-16T03:01:21.180Z,99.99
2018-07-16T03:02:06.540Z,99.99
2018-07-16T03:03:06.564Z,99.99
2018-07-16T03:04:06.604Z,99.99
2018-07-16T03:05:06.620Z,99.99
2018-07-16T03:06:06.646Z,99.99
2018-07-16T03:07:06.398Z,99.99
2018-07-16T03:08:06.681Z,99.99
2018-07-16T03:09:06.449Z,99.99
2018-07-16T03:10:06.468Z,99.99
2018-07-16T03:12:06.777Z,99.99
2018-07-16T03:13:06.795Z,99.99
2018-07-16T03:14:06.821Z,99.99
2018-07-16T03:15:06.841Z,99.99
2018-07-16T03:16:21.527Z,99.99
2018-07-16T03:17:06.889Z,99.99
2018-07-16T03:18:06.831Z,99.99
2018-07-16T03:19:06.940Z,99.99
2018-07-16T03:20:06.959Z,99.99
2018-07-16T03:21:06.987Z,99.99
2018-07-16T03:22:07.003Z,99.99
2018-07-16T03:23:06.769Z,99.99
2018-07-16T03:24:07.053Z,99.99
2018-07-16T03:25:07.076Z,99.99
2018-07-16T03:26:07.104Z,99.99
2018-07-16T03:27:07.117Z,99.99
2018-07-16T03:28:07.140Z,99.99
2018-07-16T03:29:06.907Z,99.99
2018-07-16T03:30:07.196Z,99.99
2018-07-16T03:31:07.217Z,99.99
2018-07-16T03:32:07.237Z,99.99
2018-07-16T03:33:06.997Z,99.99
2018-07-16T03:34:07.278Z,99.99
2018-07-16T03:35:07.300Z,99.99
2018-07-16T03:36:07.339Z,99.99
2018-07-16T03:37:07.350Z,99.99
2018-07-16T03:38:07.114Z,99.99
2018-07-16T03:39:07.395Z,99.99
2018-07-16T03:40:07.421Z,99.99
2018-07-16T03:41:07.182Z,99.99
2018-07-16T03:42:07.465Z,99.99
2018-07-16T03:43:07.488Z,99.99
2018-07-16T03:44:07.252Z,99.99
2018-07-16T03:45:07.535Z,99.99
2018-07-16T03:46:07.556Z,99.99
2018-07-16T03:47:07.579Z,99.99
2018-07-16T03:48:22.264Z,99.99
2018-07-16T03:49:07.367Z,99.99
2018-07-16T03:50:07.652Z,99.99
2018-07-16T03:51:07.671Z,99.99
2018-07-16T03:53:07.716Z,99.99
2018-07-16T03:54:07.482Z,99.99
2018-07-16T03:55:07.765Z,99.99
2018-07-16T03:56:07.533Z,99.99
2018-07-16T03:57:07.813Z,99.99
2018-07-16T03:58:07.835Z,99.99
2018-07-16T03:59:07.598Z,99.99
2018-07-16T04:00:07.622Z,99.99
2018-07-16T04:01:07.646Z,99.99
2018-07-16T04:02:07.925Z,99.99
2018-07-16T04:03:07.954Z,99.99
2018-07-16T04:04:22.636Z,99.99
2018-07-16T04:05:07.996Z,99.99
2018-07-16T04:06:08.021Z,99.99
2018-07-16T04:07:08.052Z,99.99
2018-07-16T04:08:08.067Z,99.99
2018-07-16T04:09:08.088Z,99.99
2018-07-16T04:10:07.854Z,99.99
2018-07-16T04:11:08.138Z,99.99
2018-07-16T04:12:08.162Z,99.99
2018-07-16T04:13:07.922Z,99.99
2018-07-16T04:14:08.206Z,99.99
2018-07-16T04:15:08.235Z,99.99
2018-07-16T04:17:08.282Z,99.99
2018-07-16T04:18:08.299Z,99.99
2018-07-16T04:19:08.322Z,99.99
2018-07-16T04:20:23.007Z,99.99
2018-07-16T04:21:08.372Z,99.99
2018-07-16T04:22:08.394Z,99.99
2018-07-16T04:23:08.164Z,99.99
2018-07-16T04:24:08.440Z,99.99
2018-07-16T04:25:08.206Z,99.99
2018-07-16T04:26:08.488Z,99.99
2018-07-16T04:27:08.514Z,99.99
2018-07-16T04:28:08.538Z,99.99
2018-07-16T04:30:08.589Z,99.99
2018-07-16T04:31:08.610Z,99.99
2018-07-16T04:32:08.634Z,99.99
2018-07-16T04:33:08.657Z,99.99
2018-07-16T04:34:08.767Z,99.99
2018-07-16T04:35:08.716Z,99.99
2018-07-16T04:36:23.391Z,99.99
2018-07-16T04:37:08.753Z,99.99
2018-07-16T04:38:08.782Z,99.99
2018-07-16T04:39:08.806Z,99.99
2018-07-16T04:40:08.829Z,99.99
2018-07-16T04:41:08.856Z,99.99
2018-07-16T04:42:08.617Z,99.99
2018-07-16T04:43:08.998Z,99.99
2018-07-16T04:44:08.922Z,99.99
2018-07-16T04:45:08.959Z,99.99
2018-07-16T04:47:09.097Z,88.07
2018-07-16T04:48:08.765Z,83.52
2018-07-16T04:49:09.046Z,78.77
2018-07-16T04:50:09.074Z,75.95
2018-07-16T04:51:23.762Z,71.76
2018-07-16T04:52:09.127Z,70.57
2018-07-16T04:53:08.894Z,69.15
2018-07-16T04:54:09.183Z,67.21
2018-07-16T04:55:09.205Z,65.89
2018-07-16T04:56:09.312Z,63.68
2018-07-16T04:57:09.261Z,62.23
2018-07-16T04:58:09.292Z,61.68
2018-07-16T04:59:09.325Z,60.71
2018-07-16T05:01:09.116Z,58.2
2018-07-16T05:02:09.403Z,56.37
2018-07-16T05:03:09.186Z,54.38
2018-07-16T05:04:09.465Z,53.19
2018-07-16T05:05:09.494Z,51.73
2018-07-16T05:06:09.265Z,52.41
2018-07-16T05:07:09.297Z,53.83
2018-07-16T05:08:09.583Z,54.19
2018-07-16T05:09:09.615Z,54.26
2018-07-16T05:10:09.646Z,54.46
2018-07-16T05:11:09.421Z,53.14
2018-07-16T05:12:09.452Z,51.34
2018-07-16T05:13:09.739Z,49.63
2018-07-16T05:14:09.516Z,47.11
2018-07-16T05:15:09.808Z,46.26
2018-07-16T05:17:09.868Z,47.7
2018-07-16T05:18:10.104Z,47.8
2018-07-16T05:19:09.943Z,49.36
2018-07-16T05:20:09.968Z,47.97
2018-07-16T05:21:10.000Z,47.36
2018-07-16T05:22:10.032Z,46.75
2018-07-16T05:23:24.728Z,43.93
2018-07-16T05:24:10.241Z,44.58
2018-07-16T05:25:10.129Z,43.8
2018-07-16T05:26:10.168Z,44.27
2018-07-16T05:27:10.199Z,45.91
2018-07-16T05:28:10.231Z,44.93
2018-07-16T05:29:10.265Z,44.07
2018-07-16T05:30:10.297Z,43.84
2018-07-16T05:31:10.337Z,42.25
2018-07-16T05:32:10.492Z,41.68
2018-07-16T05:34:10.440Z,43.12
2018-07-16T05:35:10.469Z,42.45
2018-07-16T05:36:10.505Z,41.41
2018-07-16T05:37:10.541Z,40.37
2018-07-16T05:38:10.742Z,39.86
2018-07-16T05:39:25.277Z,40.16
2018-07-16T05:40:10.646Z,40.03
2018-07-16T05:41:10.679Z,41.09
2018-07-16T05:42:10.716Z,39.82
2018-07-16T05:43:10.763Z,39.35
2018-07-16T05:44:10.792Z,40.11
2018-07-16T05:45:10.819Z,40.19
2018-07-16T05:46:10.856Z,40.88
2018-07-16T05:47:10.991Z,40.58
2018-07-16T05:48:10.928Z,39.94
2018-07-16T05:49:10.963Z,39.64
2018-07-16T05:51:11.033Z,38.11
2018-07-16T05:52:11.067Z,38.92
2018-07-16T05:53:11.215Z,39.48
2018-07-16T05:54:11.140Z,38.32
2018-07-16T05:55:25.844Z,39.01
2018-07-16T05:56:11.215Z,38.4
2018-07-16T05:57:11.247Z,38.31
2018-07-16T05:58:11.348Z,38.5
2018-07-16T05:59:11.330Z,37.46
2018-07-16T06:00:11.357Z,36.67
2018-07-16T06:02:11.430Z,36.88
2018-07-16T06:03:11.465Z,36.69
2018-07-16T06:05:11.539Z,37.16
2018-07-16T06:06:11.574Z,36.95
2018-07-16T06:07:11.611Z,36.44
2018-07-16T06:08:11.390Z,37.4
2018-07-16T06:09:11.692Z,36.6
2018-07-16T06:10:11.719Z,37.82
2018-07-16T06:11:26.422Z,36.05
2018-07-16T06:12:11.794Z,35.87
2018-07-16T06:14:11.615Z,36.44
2018-07-16T06:15:11.905Z,37.82
2018-07-16T06:16:11.943Z,39.49
2018-07-16T06:17:11.980Z,39.84
2018-07-16T06:19:12.052Z,38.45
2018-07-16T06:20:12.092Z,37.4
2018-07-16T06:21:11.869Z,36.47
2018-07-16T06:22:12.163Z,36.88
2018-07-16T06:23:12.207Z,36.59
2018-07-16T06:24:12.383Z,36.3
2018-07-16T06:25:12.026Z,34.34
2018-07-16T06:26:26.979Z,35.61
2018-07-16T06:27:12.354Z,35.51
2018-07-16T06:28:12.396Z,35.88
2018-07-16T06:29:12.424Z,35.69
2018-07-16T06:30:12.465Z,35.59
2018-07-16T06:31:12.502Z,36.88
2018-07-16T06:32:12.545Z,37.21
2018-07-16T06:33:12.576Z,36.51
2018-07-16T06:35:12.650Z,36.54
2018-07-16T06:36:12.690Z,35.66
2018-07-16T06:37:12.801Z,34.41
2018-07-16T06:38:12.763Z,35.85
2018-07-16T06:39:12.798Z,35.18
2018-07-16T06:40:12.762Z,34.1
2018-07-16T06:41:14.059Z,35.26
2018-07-16T06:42:12.914Z,35.26
2018-07-16T06:43:12.948Z,34.99
2018-07-16T06:44:12.988Z,33.72
2018-07-16T06:45:13.039Z,34
2018-07-16T06:46:12.805Z,33.33
2018-07-16T06:47:13.100Z,34.03
2018-07-16T06:48:13.139Z,34.01
2018-07-16T06:49:12.919Z,34.43
2018-07-16T06:51:12.994Z,32.2
2018-07-16T06:52:13.291Z,32.1
2018-07-16T06:53:13.328Z,32.42
2018-07-16T06:54:13.368Z,32.21
2018-07-16T06:55:13.215Z,32.42
2018-07-16T06:56:13.440Z,33.2
2018-07-16T06:57:13.495Z,33.25
2018-07-16T06:58:28.185Z,32.57
2018-07-16T06:59:13.554Z,33.25
2018-07-16T07:00:13.596Z,34.05
2018-07-16T07:01:13.634Z,34.53
2018-07-16T07:02:13.693Z,33.44
2018-07-16T07:03:13.707Z,32.41
2018-07-16T07:05:13.784Z,33.01
2018-07-16T07:06:13.823Z,32.31
2018-07-16T07:07:13.863Z,31.75
2018-07-16T07:08:13.899Z,31.57
2018-07-16T07:09:13.938Z,30.91
2018-07-16T07:10:14.167Z,30.13
2018-07-16T07:11:14.015Z,28.55
2018-07-16T07:12:14.051Z,30.23
2018-07-16T07:13:14.088Z,29.33
2018-07-16T07:14:28.795Z,29.96
2018-07-16T07:15:14.174Z,30.21
2018-07-16T07:16:14.208Z,31.07
2018-07-16T07:17:14.247Z,31.19
2018-07-16T07:18:14.113Z,30.11
2018-07-16T07:19:14.325Z,30.11
2018-07-16T07:20:14.369Z,29.64
2018-07-16T07:21:14.398Z,30.16
2018-07-16T07:23:14.475Z,31.06
2018-07-16T07:24:14.516Z,31.95
2018-07-16T07:25:14.553Z,32.11
2018-07-16T07:27:14.632Z,32.6
2018-07-16T07:28:14.669Z,31.65
2018-07-16T07:29:14.708Z,32.26
2018-07-16T07:30:29.412Z,31.57
2018-07-16T07:31:14.786Z,30.98
2018-07-16T07:32:14.824Z,31.86
2018-07-16T07:33:14.862Z,32.14
2018-07-16T07:34:14.903Z,32.51
2018-07-16T07:35:15.104Z,32.04
2018-07-16T07:36:14.808Z,32.34
2018-07-16T07:37:15.020Z,32.52
2018-07-16T07:39:14.837Z,32.44
2018-07-16T07:41:15.169Z,30.52
2018-07-16T07:42:15.213Z,31.29
2018-07-16T07:43:15.251Z,33.31
2018-07-16T07:44:15.289Z,32.41
2018-07-16T07:45:15.325Z,34.06
2018-07-16T07:46:30.031Z,34.23
2018-07-16T07:47:15.145Z,33.1
2018-07-16T07:48:15.442Z,33.2
2018-07-16T07:49:15.488Z,33.1
2018-07-16T07:50:15.519Z,34.27
2018-07-16T07:51:15.557Z,33.38
2018-07-16T07:53:15.641Z,33.1
2018-07-16T07:54:15.870Z,33.03
2018-07-16T07:55:16.821Z,34.53
2018-07-16T07:56:15.750Z,35.1
2018-07-16T07:57:15.792Z,34.87
2018-07-16T07:58:15.833Z,34.61
2018-07-16T07:59:15.605Z,34.23
2018-07-16T08:00:15.907Z,34.15
2018-07-16T08:01:30.606Z,34.54
2018-07-16T08:02:15.982Z,35.18
2018-07-16T08:03:15.764Z,35.08
2018-07-16T08:04:15.797Z,36.16
2018-07-16T08:05:16.094Z,37.86
2018-07-16T08:06:16.133Z,37.63
2018-07-16T08:07:16.170Z,36.51
2018-07-16T08:08:15.949Z,36.62
2018-07-16T08:09:16.269Z,36.05
2018-07-16T08:10:16.290Z,35.02
2018-07-16T08:11:16.330Z,34.56
2018-07-16T08:12:16.365Z,33.08
2018-07-16T08:13:16.423Z,32.8
2018-07-16T08:14:16.445Z,33.51
2018-07-16T08:15:16.492Z,32.13
2018-07-16T08:16:16.252Z,32.1
2018-07-16T08:17:16.559Z,33.44
2018-07-16T08:18:16.615Z,33.64
2018-07-16T08:19:16.627Z,33.94
2018-07-16T08:20:16.673Z,32.32
2018-07-16T08:22:16.752Z,32.04
2018-07-16T08:23:16.780Z,31.92
2018-07-16T08:24:17.484Z,32.41
2018-07-16T08:25:16.868Z,33.56
2018-07-16T08:26:16.892Z,34.51
2018-07-16T08:27:16.937Z,37.21
2018-07-16T08:29:16.745Z,38.96
2018-07-16T08:30:16.779Z,40.5
2018-07-16T08:31:17.076Z,41.33
2018-07-16T08:32:16.855Z,39.88
2018-07-16T08:33:31.869Z,38.18
2018-07-16T08:34:17.192Z,38.53
2018-07-16T08:35:17.228Z,36.21
2018-07-16T08:36:17.258Z,36.15
2018-07-16T08:37:17.310Z,36.05
2018-07-16T08:38:17.075Z,35.46
2018-07-16T08:39:17.563Z,35.55
2018-07-16T08:40:17.412Z,36.98
2018-07-16T08:41:17.456Z,36.03
2018-07-16T08:42:17.496Z,35.36
2018-07-16T08:43:17.524Z,35.55
2018-07-16T08:44:17.590Z,35.67
2018-07-16T08:45:17.597Z,35.28
2018-07-16T08:46:17.433Z,35.55
2018-07-16T08:47:17.664Z,35.36
2018-07-16T08:48:17.704Z,35.75
2018-07-16T08:49:32.400Z,34.99
2018-07-16T08:50:17.777Z,35
2018-07-16T08:51:17.811Z,33.13
2018-07-16T08:52:17.845Z,34.34
2018-07-16T08:53:17.885Z,34.82
2018-07-16T08:54:17.951Z,34.53
2018-07-16T08:55:17.957Z,35.39
2018-07-16T08:56:17.991Z,33.25
2018-07-16T08:57:18.039Z,33.74
2018-07-16T08:58:18.064Z,33.07
2018-07-16T08:59:18.239Z,34.03
2018-07-16T09:00:17.878Z,33.05
2018-07-16T09:01:18.175Z,32.87
2018-07-16T09:02:18.219Z,34.01
2018-07-16T09:03:18.254Z,35.6
2018-07-16T09:04:18.282Z,36.55
2018-07-16T09:05:32.984Z,37.29
2018-07-16T09:06:18.353Z,38.75
2018-07-16T09:07:18.135Z,37.98
2018-07-16T09:08:18.429Z,36.92
2018-07-16T09:09:18.463Z,36.63
2018-07-16T09:10:18.506Z,37.39
2018-07-16T09:11:18.629Z,37.47
2018-07-16T09:12:18.572Z,37.49
2018-07-16T09:13:18.792Z,37.1
2018-07-16T09:14:18.643Z,37.88
2018-07-16T09:15:18.421Z,36.92
2018-07-16T09:17:18.753Z,37.79
2018-07-16T09:18:18.785Z,36.88
2018-07-16T09:19:19.057Z,36.74
2018-07-16T09:20:18.857Z,36.57
2018-07-16T09:21:33.554Z,35.21
2018-07-16T09:22:18.929Z,35.14
2018-07-16T09:23:18.704Z,35.91
2018-07-16T09:24:18.992Z,36.13
2018-07-16T09:25:19.153Z,35.16
2018-07-16T09:26:19.068Z,33.91
2018-07-16T09:27:19.101Z,35.38
2018-07-16T09:28:19.149Z,35.08
2018-07-16T09:29:19.171Z,35.18
2018-07-16T09:30:18.946Z,34.11
2018-07-16T09:31:19.242Z,34.01
2018-07-16T09:32:19.277Z,34.59
2018-07-16T09:33:19.316Z,35.08
2018-07-16T09:34:19.350Z,36.49
2018-07-16T09:35:19.125Z,36.66
2018-07-16T09:36:34.082Z,37.56
2018-07-16T09:37:19.466Z,35.34
2018-07-16T09:38:19.486Z,37.17
2018-07-16T09:39:19.527Z,36.37
2018-07-16T09:40:19.562Z,36.45
2018-07-16T09:41:19.595Z,36.72
2018-07-16T09:42:19.627Z,36.43
2018-07-16T09:43:19.667Z,35.94
2018-07-16T09:44:19.822Z,36.63
2018-07-16T09:45:19.731Z,36.25
2018-07-16T09:46:19.768Z,35.78
2018-07-16T09:47:19.809Z,35.68
2018-07-16T09:48:19.836Z,34.06
2018-07-16T09:49:19.870Z,33.7
2018-07-16T09:50:19.945Z,34.08
2018-07-16T09:51:19.942Z,34.95
2018-07-16T09:52:19.974Z,35.5
2018-07-16T09:53:20.008Z,35.58
2018-07-16T09:54:20.041Z,36.63
2018-07-16T09:55:20.077Z,36.16
2018-07-16T09:56:20.179Z,35.78
2018-07-16T09:57:20.144Z,35.21
2018-07-16T09:59:20.215Z,35.25
2018-07-16T10:00:20.259Z,35.96
2018-07-16T10:01:20.285Z,37.31
2018-07-16T10:02:20.323Z,38.82
2018-07-16T10:03:20.356Z,37.57
2018-07-16T10:04:20.385Z,36.88
2018-07-16T10:05:20.419Z,37.9
2018-07-16T10:06:20.454Z,38.55
2018-07-16T10:07:20.487Z,38.73
2018-07-16T10:08:35.187Z,37.59
2018-07-16T10:09:20.559Z,38.49
2018-07-16T10:10:20.589Z,36.76
2018-07-16T10:11:20.621Z,35.82
2018-07-16T10:12:20.656Z,35.82
2018-07-16T10:13:20.700Z,36.4
2018-07-16T10:14:20.724Z,36.19
2018-07-16T10:15:20.769Z,35.62
2018-07-16T10:16:20.533Z,36.3
2018-07-16T10:17:20.824Z,37.86
2018-07-16T10:18:20.862Z,35.91
2018-07-16T10:19:20.895Z,35.75
2018-07-16T10:20:21.223Z,34.78
2018-07-16T10:21:20.959Z,34.49
2018-07-16T10:22:20.992Z,34.51
2018-07-16T10:23:21.028Z,33.82
2018-07-16T10:24:35.723Z,33.51
2018-07-16T10:25:21.094Z,34.22
2018-07-16T10:26:21.126Z,32.46
2018-07-16T10:27:21.160Z,33.33
2018-07-16T10:28:21.195Z,33.02
2018-07-16T10:29:20.968Z,33.02
2018-07-16T10:30:21.260Z,35.26
2018-07-16T10:31:21.297Z,35.11
2018-07-16T10:32:21.073Z,34.93
2018-07-16T10:33:21.362Z,33.95
2018-07-16T10:34:21.393Z,34.93
2018-07-16T10:35:21.429Z,36.45
2018-07-16T10:36:21.463Z,36.33
2018-07-16T10:37:21.495Z,36.72
2018-07-16T10:38:21.529Z,36.63
2018-07-16T10:39:21.621Z,39.15
2018-07-16T10:40:36.259Z,38.47
2018-07-16T10:41:21.626Z,37.41
2018-07-16T10:42:21.669Z,36.72
2018-07-16T10:43:21.703Z,37.27
2018-07-16T10:44:21.727Z,38.12
2018-07-16T10:46:21.794Z,38.57
2018-07-16T10:47:21.828Z,39.37
2018-07-16T10:48:21.858Z,39.28
2018-07-16T10:49:21.891Z,40.04
2018-07-16T10:52:22.003Z,40.48
2018-07-16T10:53:22.024Z,41.93
2018-07-16T10:54:22.057Z,43.35
2018-07-16T10:55:22.255Z,44.49
2018-07-16T10:56:36.785Z,44.03
2018-07-16T10:57:22.159Z,43.47
2018-07-16T10:58:21.932Z,42.69
2018-07-16T11:00:22.251Z,42.76
2018-07-16T11:01:22.285Z,42.65
2018-07-16T11:02:22.316Z,42.66
2018-07-16T11:03:22.352Z,43.93
2018-07-16T11:04:22.377Z,42.51
2018-07-16T11:05:22.451Z,43.1
2018-07-16T11:06:22.446Z,44.07
2018-07-16T11:07:22.476Z,42.93
2018-07-16T11:08:22.514Z,40.99
2018-07-16T11:09:22.538Z,40.78
2018-07-16T11:10:22.570Z,41.46
2018-07-16T11:11:37.265Z,42.61
2018-07-16T11:12:22.638Z,42.41
2018-07-16T11:13:22.669Z,41.27
2018-07-16T11:14:22.704Z,40.21
2018-07-16T11:15:22.733Z,40.6
2018-07-16T11:16:22.762Z,40.97
2018-07-16T11:17:22.790Z,42.4
2018-07-16T11:18:22.824Z,42
2018-07-16T11:19:22.864Z,41.3
2018-07-16T11:20:22.885Z,40.83
2018-07-16T11:21:22.923Z,41.91
2018-07-16T11:22:22.947Z,41.93
2018-07-16T11:23:22.721Z,42.76
2018-07-16T11:24:23.009Z,42.88
2018-07-16T11:25:23.042Z,42.3
2018-07-16T11:26:23.071Z,42.4
2018-07-16T11:27:23.102Z,41.52
2018-07-16T11:28:22.876Z,42.3
2018-07-16T11:29:23.164Z,41.42
2018-07-16T11:31:23.236Z,42.4
2018-07-16T11:32:23.260Z,42.61
2018-07-16T11:33:23.030Z,42.1
2018-07-16T11:34:23.061Z,42.1
2018-07-16T11:35:23.433Z,42.66
2018-07-16T11:36:23.380Z,42.79
2018-07-16T11:37:23.412Z,41.42
2018-07-16T11:38:23.449Z,42.79
2018-07-16T11:40:23.501Z,42.02
2018-07-16T11:41:23.534Z,42.61
2018-07-16T11:42:23.561Z,41.07
2018-07-16T11:43:38.257Z,43.41
2018-07-16T11:44:23.676Z,42.24
2018-07-16T11:45:23.660Z,41.58
2018-07-16T11:46:23.694Z,41.09
2018-07-16T11:47:23.724Z,42.46
2018-07-16T11:48:23.488Z,43.07
2018-07-16T11:49:23.785Z,40.94
2018-07-16T11:51:23.841Z,40.72
2018-07-16T11:52:24.025Z,41.19
2018-07-16T11:53:23.898Z,40.99
2018-07-16T11:54:23.930Z,41.46
2018-07-16T11:55:23.962Z,40.68
2018-07-16T11:56:23.993Z,41.27
2018-07-16T11:57:24.020Z,42.22
2018-07-16T11:58:24.051Z,42.69
2018-07-16T11:59:38.745Z,42.69
2018-07-16T12:00:24.115Z,43.25
2018-07-16T12:01:24.146Z,43.44
2018-07-16T12:02:24.174Z,43.62
2018-07-16T12:03:23.979Z,44.48
2018-07-16T12:04:24.232Z,44.35
2018-07-16T12:05:24.007Z,44.14
2018-07-16T12:06:24.295Z,44.33
2018-07-16T12:08:24.096Z,44.38
2018-07-16T12:09:24.390Z,43.43
2018-07-16T12:10:24.419Z,43.23
2018-07-16T12:11:24.451Z,42.57
2018-07-16T12:12:24.585Z,42.96
2018-07-16T12:13:24.243Z,42.69
2018-07-16T12:14:24.276Z,43.29
2018-07-16T12:15:39.225Z,41.63
2018-07-16T12:16:24.595Z,41.54
2018-07-16T12:17:24.624Z,42.02
2018-07-16T12:18:24.649Z,42.51
2018-07-16T12:19:24.680Z,40.39
2018-07-16T12:20:24.506Z,40.48
2018-07-16T12:21:24.741Z,41.36
2018-07-16T12:22:24.774Z,42.83
2018-07-16T12:23:24.802Z,41.77
2018-07-16T12:24:24.841Z,41.21
2018-07-16T12:26:24.892Z,41.21
2018-07-16T12:27:24.921Z,41.31
2018-07-16T12:28:24.986Z,39.65
2018-07-16T12:29:24.984Z,39.04
2018-07-16T12:30:25.010Z,40.41
2018-07-16T12:31:39.704Z,41.38
2018-07-16T12:32:25.068Z,40.68
2018-07-16T12:33:25.098Z,40.97
2018-07-16T12:34:25.130Z,42.41
2018-07-16T12:35:24.904Z,43.05
2018-07-16T12:36:25.191Z,42.94
2018-07-16T12:37:25.220Z,44.1
2018-07-16T12:38:25.248Z,43.99
2018-07-16T12:39:25.286Z,44.45
2018-07-16T12:40:25.323Z,44.26
2018-07-16T12:41:25.509Z,44.38
2018-07-16T12:42:25.370Z,44.2
2018-07-16T12:43:25.147Z,42.57
2018-07-16T12:44:25.430Z,43.44
2018-07-16T12:45:25.203Z,44.1
2018-07-16T12:46:40.153Z,43.64
2018-07-16T12:47:25.523Z,43.08
2018-07-16T12:48:25.552Z,42.22
2018-07-16T12:49:25.582Z,42.8
2018-07-16T12:50:25.609Z,41.44
2018-07-16T12:51:25.644Z,41.35
2018-07-16T12:52:25.728Z,42.51
2018-07-16T12:53:25.696Z,41.83
2018-07-16T12:54:25.470Z,41.13
2018-07-16T12:55:25.909Z,41.71
2018-07-16T12:56:25.788Z,40.93
2018-07-16T12:57:25.558Z,41.79
2018-07-16T12:58:25.845Z,41.69
2018-07-16T12:59:25.617Z,41.01
2018-07-16T13:00:25.647Z,41.38
2018-07-16T13:01:25.944Z,42.82
2018-07-16T13:02:25.709Z,41.86
2018-07-16T13:03:25.991Z,42.72
2018-07-16T13:04:26.026Z,41.96
2018-07-16T13:05:25.797Z,42.28
2018-07-16T13:06:26.082Z,41.96
2018-07-16T13:07:26.316Z,41.96
2018-07-16T13:08:26.144Z,42.53
2018-07-16T13:09:26.171Z,42.24
2018-07-16T13:10:26.204Z,42.74
2018-07-16T13:11:26.238Z,41.89
2018-07-16T13:12:26.260Z,41.89
2018-07-16T13:13:26.291Z,42.3
2018-07-16T13:15:26.349Z,41.25
2018-07-16T13:16:26.382Z,40.17
2018-07-16T13:17:26.412Z,40.27
2018-07-16T13:18:41.101Z,40.06
2018-07-16T13:19:26.467Z,42.2
2018-07-16T13:20:26.497Z,40.56
2018-07-16T13:21:26.535Z,40.86
2018-07-16T13:22:26.556Z,40.37
2018-07-16T13:23:26.584Z,40.66
2018-07-16T13:24:26.356Z,40.45
2018-07-16T13:26:26.670Z,40.03
2018-07-16T13:28:26.733Z,41.03
2018-07-16T13:29:26.765Z,41.42
2018-07-16T13:30:26.799Z,42.18
2018-07-16T13:31:26.562Z,42.18
2018-07-16T13:32:26.849Z,41.01
2018-07-16T13:33:26.882Z,42.4
2018-07-16T13:34:41.570Z,41.32
2018-07-16T13:35:26.938Z,41.89
2018-07-16T13:36:26.967Z,42.57
2018-07-16T13:37:27.003Z,42.55
2018-07-16T13:38:27.026Z,42.14